Time;durP1;ratioP1;P1;durP2;ratioP2;P2;SDS_P1;SDS_P2;PMS_P1;PMS_P2;Temp;Humidity;BMP_temperature;BMP_pressure;BME280_temperature;BME280_humidity;BME280_pressure;Samples;Min_cycle;Max_cycle;Signal;HPM_P1;HPM_P2
2023/01/27 00:01:14;;;;;;;2.00;1.90;;;;;;;1.13;91.29;95430.66;4313278;32;20282;-68
2023/01/27 00:03:40;;;;;;;1.30;1.30;;;;;;;0.99;92.44;95436.13;4315544;32;20408;-67
2023/01/27 00:06:10;;;;;;;1.73;1.73;;;;;;;1.24;91.96;95438.47;4340315;32;20310;-68
2023/01/27 00:08:37;;;;;;;2.27;2.17;;;;;;;1.24;91.42;95427.22;4322822;32;20406;-67
2023/01/27 00:13:48;;;;;;;3.03;1.87;;;;;;;1.10;91.57;95431.91;4321556;32;20365;-68
2023/01/27 00:16:15;;;;;;;4.03;2.47;;;;;;;1.22;91.90;95437.91;4324705;32;20326;-67
2023/01/27 00:18:43;;;;;;;1.67;1.57;;;;;;;1.29;91.45;95435.16;4318927;32;20281;-68
2023/01/27 00:26:38;;;;;;;1.37;1.37;;;;;;;1.60;89.40;95423.44;4296472;33;20297;-66
2023/01/27 00:29:04;;;;;;;1.40;1.40;;;;;;;1.40;90.44;95425.69;4317720;33;20302;-66
2023/01/27 00:34:15;;;;;;;2.97;2.23;;;;;;;1.37;92.11;95417.28;4327429;32;20211;-67
2023/01/27 00:36:41;;;;;;;2.00;1.90;;;;;;;1.39;91.89;95422.28;4327945;32;20382;-67
2023/01/27 00:39:08;;;;;;;5.30;1.93;;;;;;;1.58;91.69;95423.69;4328353;32;20202;-67
2023/01/27 00:41:33;;;;;;;1.70;1.67;;;;;;;1.39;91.87;95419.66;4328746;32;20346;-63
2023/01/27 00:44:00;;;;;;;2.43;2.33;;;;;;;1.36;92.56;95415.69;4330170;32;20279;-67
2023/01/27 00:46:25;;;;;;;3.60;3.40;;;;;;;1.62;92.47;95410.94;4327819;33;20181;-67
2023/01/27 00:48:51;;;;;;;1.07;1.07;;;;;;;1.88;91.15;95406.91;4327895;33;20308;-67
2023/01/27 00:51:17;;;;;;;1.50;1.40;;;;;;;1.83;90.36;95409.47;4327716;33;20182;-67
2023/01/27 00:53:42;;;;;;;2.23;2.13;;;;;;;1.60;90.83;95418.22;4312544;33;20208;-68
2023/01/27 00:56:08;;;;;;;2.33;2.00;;;;;;;1.47;91.32;95418.50;4315478;33;20271;-67
2023/01/27 00:58:33;;;;;;;1.40;1.30;;;;;;;1.32;92.18;95429.47;4326874;33;20299;-67
2023/01/27 01:01:02;;;;;;;2.27;2.20;;;;;;;1.40;91.56;95420.47;4325910;33;20206;-67
2023/01/27 01:03:32;;;;;;;2.43;2.17;;;;;;;1.50;91.47;95431.09;4335504;32;20261;-67
2023/01/27 01:05:59;;;;;;;1.87;1.77;;;;;;;1.32;91.34;95425.03;4327618;33;20417;-67
2023/01/27 01:08:25;;;;;;;2.73;2.53;;;;;;;1.30;91.76;95427.06;4328776;32;20297;-68
2023/01/27 01:10:51;;;;;;;1.73;1.63;;;;;;;1.43;91.49;95435.69;4317711;33;20287;-67
2023/01/27 01:13:17;;;;;;;1.97;1.87;;;;;;;1.44;91.48;95437.28;4312766;33;20182;-67
2023/01/27 01:15:43;;;;;;;1.67;1.67;;;;;;;1.40;90.34;95438.75;4313832;33;20186;-67
2023/01/27 01:18:09;;;;;;;0.83;0.83;;;;;;;1.38;90.13;95442.41;4317496;33;20331;-67
2023/01/27 01:20:37;;;;;;;1.10;1.10;;;;;;;1.35;90.67;95442.84;4317596;32;20261;-66
2023/01/27 01:23:02;;;;;;;1.13;1.13;;;;;;;1.43;89.91;95443.53;4340309;32;20289;-67
2023/01/27 01:25:28;;;;;;;1.40;0.97;;;;;;;1.43;88.78;95440.91;4326686;32;20274;-67
2023/01/27 01:27:53;;;;;;;1.67;1.67;;;;;;;1.29;89.03;95445.59;4325939;32;20272;-67
2023/01/27 01:30:24;;;;;;;2.03;1.77;;;;;;;1.15;89.56;95439.06;4339210;32;20201;-67
2023/01/27 01:32:51;;;;;;;1.47;1.47;;;;;;;1.14;90.10;95440.88;4320254;32;20185;-67
2023/01/27 01:35:17;;;;;;;2.97;1.57;;;;;;;1.08;90.58;95449.63;4324781;33;20271;-67
2023/01/27 01:37:42;;;;;;;1.37;1.27;;;;;;;1.22;90.33;95440.53;4325316;32;20274;-67
2023/01/27 01:40:11;;;;;;;0.73;0.73;;;;;;;1.57;88.02;95439.59;4321649;32;20221;-67
2023/01/27 01:42:51;;;;;;;2.57;0.93;;;;;;;1.43;87.00;95438.31;4323130;32;20264;-67
2023/01/27 01:45:35;;;;;;;0.43;0.43;;;;;;;1.46;86.13;95440.41;4324549;32;20325;-67
2023/01/27 01:48:22;;;;;;;0.73;0.73;;;;;;;1.41;86.19;95438.53;4325588;33;20345;-67
2023/01/27 01:50:59;;;;;;;3.60;2.00;;;;;;;1.38;86.62;95434.56;4312925;33;20298;-67
2023/01/27 01:53:31;;;;;;;1.97;1.87;;;;;;;1.29;87.46;95425.50;4323124;32;20282;-67
2023/01/27 01:56:01;;;;;;;2.17;1.70;;;;;;;1.48;86.68;95407.81;4318830;32;20373;-67
2023/01/27 01:58:27;;;;;;;1.10;1.03;;;;;;;1.58;85.87;95405.37;4327792;32;20282;-67
2023/01/27 02:00:54;;;;;;;0.57;0.57;;;;;;;1.48;85.98;95404.41;4327467;32;22006;-67
2023/01/27 02:03:21;;;;;;;1.17;1.17;;;;;;;1.51;86.54;95401.31;4339266;32;20166;-67
2023/01/27 02:05:47;;;;;;;1.23;1.23;;;;;;;1.48;86.43;95391.31;4319967;32;20267;-67
2023/01/27 02:08:27;;;;;;;1.10;0.40;;;;;;;1.57;86.58;95403.78;4330269;32;20274;-67
2023/01/27 02:10:53;;;;;;;0.63;0.63;;;;;;;1.55;86.51;95418.13;4320728;32;20244;-67
2023/01/27 02:13:19;;;;;;;1.47;1.37;;;;;;;1.52;86.36;95415.97;4330312;32;20275;-68
2023/01/27 02:15:45;;;;;;;3.47;1.80;;;;;;;1.50;87.22;95416.22;4328694;32;20300;-68
2023/01/27 02:18:11;;;;;;;0.93;0.93;;;;;;;1.71;86.98;95414.75;4325694;32;20300;-66
2023/01/27 02:20:42;;;;;;;1.97;1.17;;;;;;;1.59;87.12;95408.78;4332613;32;20193;-68
2023/01/27 02:23:16;;;;;;;0.90;0.90;;;;;;;1.44;87.54;95416.38;4329741;33;20181;-68
2023/01/27 02:26:10;;;;;;;1.33;1.27;;;;;;;1.56;87.42;95417.09;4329752;33;20323;-67
2023/01/27 02:28:35;;;;;;;3.50;1.87;;;;;;;1.88;85.78;95412.16;4326770;32;20301;-67
2023/01/27 02:31:01;;;;;;;2.10;2.00;;;;;;;1.72;85.85;95411.91;4318713;33;20278;-67
2023/01/27 02:33:26;;;;;;;1.67;1.57;;;;;;;1.81;84.89;95411.53;4330302;32;20201;-68
2023/01/27 02:36:15;;;;;;;0.90;0.90;;;;;;;1.78;85.15;95420.63;4330284;33;20187;-67
2023/01/27 02:38:50;;;;;;;1.10;1.10;;;;;;;1.62;86.59;95421.41;4316561;33;20186;-68
2023/01/27 02:41:36;;;;;;;2.90;2.70;;;;;;;1.52;86.66;95416.78;4329880;33;20308;-67
2023/01/27 02:44:01;;;;;;;1.70;1.60;;;;;;;1.50;86.95;95415.41;4314509;33;20283;-67
2023/01/27 02:46:27;;;;;;;3.17;3.03;;;;;;;1.35;88.67;95414.13;4329432;33;20324;-68
2023/01/27 02:48:53;;;;;;;1.20;1.20;;;;;;;1.59;88.22;95406.19;4316871;33;23349;-68
2023/01/27 02:51:18;;;;;;;1.23;1.23;;;;;;;1.47;88.76;95410.66;4311810;33;20178;-68
2023/01/27 02:53:44;;;;;;;1.13;1.13;;;;;;;1.09;89.96;95406.81;4330751;32;20239;-67
2023/01/27 02:56:10;;;;;;;1.43;1.40;;;;;;;1.19;90.46;95409.62;4329433;33;20194;-68
2023/01/27 02:58:35;;;;;;;1.00;1.00;;;;;;;1.32;90.64;95404.13;4328149;33;20268;-67
2023/01/27 03:01:00;;;;;;;0.83;0.83;;;;;;;1.17;90.56;95410.88;4317717;33;20231;-68
2023/01/27 03:03:26;;;;;;;1.27;1.27;;;;;;;1.24;90.71;95419.38;4329004;32;20272;-67
2023/01/27 03:05:51;;;;;;;1.50;1.40;;;;;;;1.19;89.75;95407.03;4320037;33;20190;-67
2023/01/27 03:08:17;;;;;;;1.40;1.40;;;;;;;1.07;89.57;95406.25;4326594;32;20182;-68
2023/01/27 03:10:44;;;;;;;0.80;0.80;;;;;;;1.12;89.92;95403.75;4328758;32;20185;-67
2023/01/27 03:13:09;;;;;;;3.13;1.50;;;;;;;1.25;89.89;95400.06;4315276;33;20274;-68
2023/01/27 03:18:18;;;;;;;1.03;1.03;;;;;;;1.19;89.28;95408.84;4326825;32;20208;-67
2023/01/27 03:20:46;;;;;;;1.57;1.57;;;;;;;0.94;90.16;95402.09;4331227;32;20314;-67
2023/01/27 03:23:12;;;;;;;0.75;0.75;;;;;;;0.88;90.65;95410.84;4328559;32;20186;-68
2023/01/27 03:25:46;;;;;;;1.98;1.87;;;;;;;0.90;90.99;95411.41;4344421;32;20174;-67
2023/01/27 03:28:12;;;;;;;2.05;2.03;;;;;;;0.73;92.01;95409.72;4343875;32;20196;-67
2023/01/27 03:30:38;;;;;;;1.00;1.00;;;;;;;0.65;92.52;95411.66;4344454;32;20185;-67
2023/01/27 03:33:06;;;;;;;1.75;1.65;;;;;;;0.72;92.60;95408.94;4330163;32;20181;-66
2023/01/27 03:35:33;;;;;;;2.03;1.92;;;;;;;0.77;92.48;95409.06;4346056;32;20257;-68
2023/01/27 03:46:17;;;;;;;1.40;1.30;;;;;;;0.73;93.11;95394.88;4344097;32;20215;-68
2023/01/27 03:48:43;;;;;;;3.83;2.03;;;;;;;0.88;92.90;95394.38;4343297;32;20239;-68
2023/01/27 03:51:09;;;;;;;1.93;1.80;;;;;;;0.97;92.42;95398.22;4343651;32;20173;-67
2023/01/27 03:53:36;;;;;;;2.25;1.25;;;;;;;1.20;91.11;95395.53;4335514;32;20292;-67
2023/01/27 03:56:02;;;;;;;1.93;1.93;;;;;;;0.89;90.60;95393.34;4332382;32;20272;-68
2023/01/27 03:58:30;;;;;;;0.97;0.97;;;;;;;0.76;90.80;95391.78;4328045;32;20274;-67
2023/01/27 04:01:17;;;;;;;2.55;1.45;;;;;;;0.76;91.26;95391.78;4337279;32;20270;-67
2023/01/27 04:09:31;;;;;;;1.60;1.50;;;;;;;0.73;91.77;95412.34;4343464;32;20251;-68
2023/01/27 04:11:58;;;;;;;2.25;0.90;;;;;;;0.68;92.83;95407.81;4330733;32;20275;-68
2023/01/27 04:14:29;;;;;;;1.73;1.70;;;;;;;0.60;92.71;95401.12;4330655;32;20443;-67
2023/01/27 04:17:01;;;;;;;1.00;1.00;;;;;;;0.51;93.09;95394.66;4343312;32;20215;-68
2023/01/27 04:19:27;;;;;;;1.33;1.33;;;;;;;0.55;92.66;95398.41;4330185;32;20191;-68
2023/01/27 04:21:52;;;;;;;1.65;1.65;;;;;;;0.29;93.33;95402.28;4324438;33;20189;-68
2023/01/27 04:24:22;;;;;;;2.00;1.90;;;;;;;0.37;93.50;95406.34;4315594;33;20213;-68
2023/01/27 04:26:57;;;;;;;1.37;1.37;;;;;;;0.41;93.60;95404.91;4328373;33;20187;-68
2023/01/27 04:29:25;;;;;;;0.95;0.95;;;;;;;0.41;93.78;95406.72;4333347;32;20185;-68
2023/01/27 04:31:50;;;;;;;2.75;1.50;;;;;;;0.42;93.32;95397.81;4319568;33;20186;-68
2023/01/27 04:34:17;;;;;;;2.40;2.30;;;;;;;0.49;92.73;95404.53;4317002;33;20197;-67
2023/01/27 04:36:42;;;;;;;1.20;1.08;;;;;;;0.37;92.88;95406.34;4321036;33;20182;-68
2023/01/27 04:39:08;;;;;;;2.20;2.00;;;;;;;0.49;93.18;95403.72;4312725;33;20196;-68
2023/01/27 04:41:34;;;;;;;1.23;1.23;;;;;;;0.49;92.94;95396.69;4328163;33;20185;-64
2023/01/27 04:44:00;;;;;;;2.57;1.50;;;;;;;0.47;93.07;95406.56;4331924;32;20192;-68
2023/01/27 04:46:25;;;;;;;0.88;0.88;;;;;;;0.50;92.52;95413.94;4302997;33;20190;-68
2023/01/27 04:48:51;;;;;;;1.73;1.63;;;;;;;0.47;91.91;95403.97;4309169;33;20177;-68
2023/01/27 04:51:16;;;;;;;1.67;1.57;;;;;;;0.50;92.10;95402.72;4328510;33;20186;-68
2023/01/27 04:53:42;;;;;;;1.77;1.67;;;;;;;0.69;90.92;95409.38;4328637;33;20186;-68
2023/01/27 04:56:20;;;;;;;0.63;0.63;;;;;;;0.24;91.67;95411.78;4304895;33;20208;-67
2023/01/27 04:58:45;;;;;;;2.28;2.17;;;;;;;0.49;91.75;95408.94;4330536;32;20220;-68
2023/01/27 05:01:10;;;;;;;1.73;1.73;;;;;;;0.61;91.18;95401.94;4330592;32;20171;-68
2023/01/27 05:03:35;;;;;;;1.40;1.23;;;;;;;0.60;91.02;95411.56;4331847;32;20268;-68
2023/01/27 05:06:01;;;;;;;2.23;1.57;;;;;;;0.60;91.03;95408.16;4334967;32;20277;-68
2023/01/27 05:08:26;;;;;;;1.60;1.33;;;;;;;0.34;91.74;95417.25;4314861;33;20186;-68
2023/01/27 05:10:51;;;;;;;1.97;1.87;;;;;;;0.24;92.72;95412.56;4314882;33;20192;-68
2023/01/27 05:13:17;;;;;;;0.80;0.80;;;;;;;0.38;92.40;95407.16;4327368;33;20228;-68
2023/01/27 05:15:42;;;;;;;1.40;1.40;;;;;;;0.18;92.67;95417.91;4311564;33;20245;-68
2023/01/27 05:18:07;;;;;;;1.27;1.27;;;;;;;0.44;91.85;95409.62;4324594;33;20185;-67
2023/01/27 05:20:33;;;;;;;1.23;1.23;;;;;;;0.65;91.52;95403.81;4339265;32;20186;-68
2023/01/27 05:25:43;;;;;;;0.57;0.57;;;;;;;0.67;90.64;95411.44;4319436;33;20261;-68
2023/01/27 05:28:09;;;;;;;1.10;0.75;;;;;;;0.88;89.85;95415.25;4327663;32;20188;-68
2023/01/27 05:30:34;;;;;;;2.30;2.20;;;;;;;0.72;89.86;95410.75;4329211;33;20241;-67
2023/01/27 05:33:00;;;;;;;1.30;1.30;;;;;;;0.73;90.18;95413.13;4329693;33;20185;-69
2023/01/27 05:35:25;;;;;;;2.70;2.37;;;;;;;0.94;89.96;95416.97;4330543;32;20220;-68
2023/01/27 05:37:50;;;;;;;1.50;1.40;;;;;;;1.01;89.25;95422.84;4310144;33;20169;-68
2023/01/27 05:40:16;;;;;;;1.70;1.40;;;;;;;1.17;88.71;95426.56;4326649;33;20236;-68
2023/01/27 05:42:41;;;;;;;1.10;1.03;;;;;;;1.23;88.17;95429.03;4313637;32;20208;-68
2023/01/27 05:45:07;;;;;;;1.70;1.70;;;;;;;1.15;87.41;95434.63;4302016;33;20228;-68
2023/01/27 05:47:32;;;;;;;2.55;2.45;;;;;;;0.93;87.93;95431.03;4329105;33;20216;-69
2023/01/27 05:49:58;;;;;;;1.70;1.63;;;;;;;0.79;88.73;95437.53;4335078;32;20186;-68
2023/01/27 05:52:23;;;;;;;2.90;1.77;;;;;;;0.88;89.17;95444.78;4330694;32;20292;-68
2023/01/27 05:54:51;;;;;;;2.03;1.93;;;;;;;0.79;89.31;95440.94;4330339;32;20198;-68
2023/01/27 05:57:16;;;;;;;1.92;1.90;;;;;;;0.80;89.90;95442.53;4338574;32;20200;-68
2023/01/27 05:59:41;;;;;;;0.97;0.97;;;;;;;0.73;90.01;95443.66;4334523;32;20204;-68
2023/01/27 06:02:07;;;;;;;2.60;2.40;;;;;;;0.79;90.40;95447.97;4314200;33;20220;-68
2023/01/27 06:04:32;;;;;;;1.57;1.57;;;;;;;0.78;91.25;95449.00;4317477;33;20186;-68
2023/01/27 06:06:57;;;;;;;2.20;2.10;;;;;;;0.83;90.62;95447.28;4329019;32;20264;-68
2023/01/27 06:09:23;;;;;;;1.53;1.47;;;;;;;1.03;90.72;95452.94;4325565;33;20415;-68
2023/01/27 06:11:48;;;;;;;1.37;1.37;;;;;;;0.96;89.53;95457.50;4323738;33;20189;-67
2023/01/27 06:14:13;;;;;;;3.33;2.37;;;;;;;1.23;89.64;95459.59;4319032;32;20193;-68
2023/01/27 06:16:39;;;;;;;1.97;1.93;;;;;;;1.29;89.09;95459.44;4329829;33;20212;-67
2023/01/27 06:19:04;;;;;;;2.80;2.70;;;;;;;1.41;88.85;95451.59;4321027;32;20328;-66
2023/01/27 06:21:29;;;;;;;1.73;1.67;;;;;;;1.65;87.97;95453.09;4344896;32;20239;-68
2023/01/27 06:23:56;;;;;;;1.03;1.03;;;;;;;1.49;87.52;95455.63;4342502;32;20186;-68
2023/01/27 06:26:22;;;;;;;2.15;2.05;;;;;;;1.10;88.55;95460.63;4321793;32;20182;-70
2023/01/27 06:28:47;;;;;;;1.37;1.37;;;;;;;0.89;89.87;95464.63;4344190;32;20200;-68
2023/01/27 06:31:19;;;;;;;2.53;2.43;;;;;;;0.85;89.76;95457.50;4344513;32;20181;-68
2023/01/27 06:33:44;;;;;;;2.03;1.93;;;;;;;0.94;90.50;95458.75;4330641;32;20217;-67
2023/01/27 06:36:13;;;;;;;2.87;2.77;;;;;;;1.26;89.94;95470.34;4344996;32;20299;-68
2023/01/27 06:38:38;;;;;;;1.23;1.23;;;;;;;1.36;89.51;95473.19;4331021;32;20212;-68
2023/01/27 06:41:04;;;;;;;1.97;1.87;;;;;;;1.07;89.98;95473.34;4346603;32;20282;-65
2023/01/27 06:43:29;;;;;;;2.23;2.10;;;;;;;0.89;90.36;95476.91;4345013;32;20189;-68
2023/01/27 06:45:57;;;;;;;1.97;1.77;;;;;;;0.79;91.37;95481.91;4333866;32;20300;-68
2023/01/27 06:48:23;;;;;;;2.83;2.73;;;;;;;0.65;92.39;95492.56;4343524;32;20192;-67
2023/01/27 06:50:52;;;;;;;2.12;2.03;;;;;;;0.52;93.29;95495.41;4326548;32;20309;-70
2023/01/27 06:53:17;;;;;;;2.47;2.37;;;;;;;0.59;92.78;95495.31;4338706;32;20186;-68
2023/01/27 06:55:43;;;;;;;2.07;1.97;;;;;;;0.58;92.71;95501.53;4342781;32;20204;-68
2023/01/27 06:58:11;;;;;;;2.28;2.17;;;;;;;0.76;92.66;95492.81;4329008;32;20245;-68
2023/01/27 07:00:38;;;;;;;1.27;1.27;;;;;;;0.71;92.83;95496.09;4329065;32;20196;-67
2023/01/27 07:03:04;;;;;;;2.25;2.15;;;;;;;0.83;92.95;95490.88;4343400;32;20189;-68
2023/01/27 07:05:31;;;;;;;2.67;2.40;;;;;;;1.00;92.79;95504.84;4341708;32;20189;-68
2023/01/27 07:07:56;;;;;;;2.83;2.72;;;;;;;0.90;91.93;95494.94;4341163;32;20290;-65
2023/01/27 07:10:21;;;;;;;1.23;1.23;;;;;;;1.06;92.95;95492.66;4338297;32;20185;-64
2023/01/27 07:12:47;;;;;;;3.97;3.67;;;;;;;3.33;100.00;95485.22;4341761;32;20196;-65
2023/01/27 07:15:13;;;;;;;1.90;1.80;;;;;;;3.65;99.35;95480.13;4341199;32;20174;-65
2023/01/27 07:17:38;;;;;;;1.00;1.00;;;;;;;4.26;95.90;95479.94;4342197;32;20220;-64
2023/01/27 07:20:05;;;;;;;2.77;2.57;;;;;;;4.43;89.21;95491.09;4326339;32;20289;-65
2023/01/27 07:22:31;;;;;;;2.27;2.17;;;;;;;5.01;89.59;95482.31;4346292;32;20236;-65
2023/01/27 07:24:56;;;;;;;3.07;2.53;;;;;;;4.60;81.87;95485.72;4342792;32;20290;-66
2023/01/27 07:27:23;;;;;;;2.60;2.50;;;;;;;5.02;84.41;95483.09;4341123;32;20170;-66
2023/01/27 07:29:48;;;;;;;3.07;2.50;;;;;;;4.74;83.98;95477.16;4330889;32;20182;-65
2023/01/27 07:32:13;;;;;;;1.27;1.27;;;;;;;4.99;82.64;95467.88;4342894;32;20373;-65
2023/01/27 07:34:39;;;;;;;3.33;3.00;;;;;;;4.69;82.35;95479.75;4341524;32;20208;-65
2023/01/27 07:37:04;;;;;;;2.90;2.30;;;;;;;5.07;80.45;95470.00;4339738;32;20229;-65
2023/01/27 07:39:30;;;;;;;4.13;3.83;;;;;;;5.18;77.88;95474.28;4335551;32;20228;-65
2023/01/27 07:41:57;;;;;;;2.77;2.67;;;;;;;5.18;77.80;95472.44;4335454;32;20256;-65
2023/01/27 07:44:23;;;;;;;2.27;2.17;;;;;;;5.14;77.31;95483.72;4325726;32;20352;-65
2023/01/27 07:46:48;;;;;;;1.43;1.43;;;;;;;5.03;78.28;95489.94;4330745;32;20305;-65
2023/01/27 07:49:13;;;;;;;2.40;2.20;;;;;;;5.20;77.53;95482.69;4328322;32;20194;-65
2023/01/27 07:51:39;;;;;;;2.83;2.63;;;;;;;5.11;76.39;95481.59;4339600;32;20193;-65
2023/01/27 07:54:04;;;;;;;1.97;1.87;;;;;;;5.11;75.26;95484.22;4323592;32;20248;-67
2023/01/27 07:56:31;;;;;;;1.60;1.50;;;;;;;4.63;75.34;95486.00;4331476;32;20177;-64
2023/01/27 07:58:57;;;;;;;1.87;1.80;;;;;;;3.50;75.54;95487.81;4342092;32;20186;-67
2023/01/27 08:01:22;;;;;;;3.67;2.77;;;;;;;3.01;78.24;95492.16;4331673;32;20327;-64
2023/01/27 08:03:48;;;;;;;2.03;1.93;;;;;;;2.51;80.79;95489.56;4330380;32;20185;-64
2023/01/27 08:06:13;;;;;;;4.00;3.57;;;;;;;2.59;81.37;95495.22;4335091;32;20260;-62
2023/01/27 08:08:38;;;;;;;2.33;2.23;;;;;;;2.57;81.77;95480.78;4343999;32;20186;-64
2023/01/27 08:11:09;;;;;;;2.47;2.27;;;;;;;2.20;82.58;95494.31;4330208;32;20265;-62
2023/01/27 08:13:35;;;;;;;2.37;2.17;;;;;;;2.22;82.64;95496.72;4330263;32;20199;-65
2023/01/27 08:16:07;;;;;;;2.20;2.07;;;;;;;1.81;84.92;95496.00;4344065;32;20296;-63
2023/01/27 08:18:33;;;;;;;2.20;2.00;;;;;;;1.84;85.24;95497.34;4342775;32;20306;-62
2023/01/27 08:21:01;;;;;;;1.87;1.77;;;;;;;2.10;84.82;95498.56;4344521;32;20273;-61
2023/01/27 08:23:27;;;;;;;2.97;2.77;;;;;;;2.00;84.28;95500.00;4334481;32;20281;-64
2023/01/27 08:25:55;;;;;;;2.63;2.53;;;;;;;1.90;85.44;95502.44;4346062;32;20291;-63
2023/01/27 08:28:21;;;;;;;5.37;3.10;;;;;;;2.06;85.03;95501.69;4344271;32;20200;-62
2023/01/27 08:30:50;;;;;;;1.17;1.17;;;;;;;2.21;83.93;95510.81;4342516;32;20278;-62
2023/01/27 08:33:22;;;;;;;2.30;2.20;;;;;;;2.17;84.00;95504.47;4312670;33;20298;-61
2023/01/27 08:35:49;;;;;;;2.77;2.67;;;;;;;2.26;84.09;95509.09;4341666;32;20331;-63
2023/01/27 08:38:17;;;;;;;3.37;2.70;;;;;;;2.20;84.30;95509.22;4337508;32;20293;-62
2023/01/27 08:40:43;;;;;;;1.97;1.87;;;;;;;2.56;82.00;95498.31;4330677;32;20286;-64
2023/01/27 08:43:09;;;;;;;2.13;2.03;;;;;;;2.51;82.24;95503.47;4343593;32;20380;-64
2023/01/27 08:45:35;;;;;;;2.53;2.33;;;;;;;2.52;81.71;95512.91;4343958;32;20296;-65
2023/01/27 08:48:01;;;;;;;2.50;2.30;;;;;;;2.37;82.18;95520.50;4319869;32;20278;-62
2023/01/27 08:50:28;;;;;;;3.00;2.80;;;;;;;2.36;82.22;95521.53;4342563;32;20181;-65
2023/01/27 08:52:55;;;;;;;3.10;2.20;;;;;;;2.29;82.60;95528.75;4343264;32;20178;-64
2023/01/27 08:55:20;;;;;;;2.13;2.03;;;;;;;2.33;81.96;95519.41;4330384;33;20356;-66
2023/01/27 08:57:45;;;;;;;4.03;3.73;;;;;;;2.53;81.80;95530.19;4341891;32;20305;-65
2023/01/27 09:00:11;;;;;;;2.53;2.33;;;;;;;2.63;81.94;95525.13;4330665;32;20212;-65
2023/01/27 09:02:37;;;;;;;2.00;1.90;;;;;;;2.71;81.58;95529.16;4343453;32;20185;-65
2023/01/27 09:05:03;;;;;;;3.27;2.43;;;;;;;2.41;82.15;95543.38;4340654;32;20177;-65
2023/01/27 09:07:28;;;;;;;2.83;2.63;;;;;;;2.15;82.29;95530.06;4343192;32;20204;-65
2023/01/27 09:09:53;;;;;;;2.03;1.93;;;;;;;2.19;83.94;95539.03;4332903;32;20232;-65
2023/01/27 09:12:19;;;;;;;3.27;2.97;;;;;;;2.37;83.24;95526.53;4344009;32;20284;-63
2023/01/27 09:14:44;;;;;;;3.10;2.73;;;;;;;2.45;82.92;95527.19;4332831;32;20177;-63
2023/01/27 09:17:09;;;;;;;1.50;1.50;;;;;;;2.23;82.82;95524.47;4342222;32;20173;-62
2023/01/27 09:19:35;;;;;;;3.83;2.00;;;;;;;2.21;83.11;95532.56;4343028;32;20220;-62
2023/01/27 09:22:01;;;;;;;3.57;3.37;;;;;;;2.29;83.14;95528.75;4329964;33;20208;-61
2023/01/27 09:24:26;;;;;;;2.03;1.93;;;;;;;2.31;82.13;95534.53;4329230;33;20196;-61
2023/01/27 09:26:53;;;;;;;2.40;2.27;;;;;;;2.45;82.08;95530.59;4343801;32;20361;-63
2023/01/27 09:29:18;;;;;;;2.27;2.07;;;;;;;2.57;80.62;95533.13;4329994;33;20181;-62
2023/01/27 09:31:44;;;;;;;3.00;2.80;;;;;;;2.48;81.91;95538.00;4315791;32;20301;-61
2023/01/27 09:34:09;;;;;;;3.13;2.93;;;;;;;2.61;81.49;95532.44;4340334;32;20222;-61
2023/01/27 09:36:41;;;;;;;2.00;1.90;;;;;;;2.28;82.07;95540.25;4329685;32;20234;-63
2023/01/27 09:39:07;;;;;;;2.00;1.90;;;;;;;2.17;82.65;95546.34;4342504;32;20208;-62
2023/01/27 09:41:51;;;;;;;2.20;2.10;;;;;;;2.21;83.09;95550.06;4326172;32;20278;-65
2023/01/27 09:44:41;;;;;;;2.63;2.53;;;;;;;2.09;83.43;95544.88;4332769;33;20182;-63
2023/01/27 09:47:31;;;;;;;1.63;1.53;;;;;;;1.90;83.99;95553.94;4334609;33;20275;-62
2023/01/27 09:50:25;;;;;;;2.40;2.20;;;;;;;1.89;85.16;95555.75;4341848;32;20290;-65
2023/01/27 09:53:06;;;;;;;1.30;1.30;;;;;;;1.86;84.78;95552.84;4333486;33;20281;-62
2023/01/27 09:55:50;;;;;;;1.70;1.60;;;;;;;2.00;84.27;95549.72;4337596;32;20289;-65
2023/01/27 09:58:36;;;;;;;2.10;2.00;;;;;;;2.18;83.83;95556.56;4343153;32;20286;-64
2023/01/27 10:01:17;;;;;;;2.40;1.27;;;;;;;1.81;83.57;95540.44;4330382;32;20331;-65
2023/01/27 10:03:48;;;;;;;1.90;1.80;;;;;;;1.89;83.62;95547.91;4343301;32;20289;-63
2023/01/27 10:06:38;;;;;;;2.33;2.23;;;;;;;1.92;83.90;95549.28;4343034;32;20352;-63
2023/01/27 10:09:39;;;;;;;1.10;1.10;;;;;;;1.81;84.24;95550.91;4322976;33;20275;-62
2023/01/27 10:12:37;;;;;;;8.27;2.57;;;;;;;1.82;83.43;95560.34;4320103;32;20363;-63
2023/01/27 10:15:31;;;;;;;1.23;1.17;;;;;;;1.88;84.38;95554.16;4328265;33;20331;-63
2023/01/27 10:18:02;;;;;;;0.77;0.77;;;;;;;1.83;83.81;95556.72;4328516;32;20277;-64
2023/01/27 10:20:38;;;;;;;0.83;0.83;;;;;;;1.87;84.53;95557.03;4329132;32;20295;-67
2023/01/27 10:23:28;;;;;;;1.30;1.30;;;;;;;1.82;83.91;95554.31;4324848;32;20291;-62
2023/01/27 10:25:56;;;;;;;1.23;1.13;;;;;;;1.64;84.03;95553.47;4329350;32;20320;-62
2023/01/27 10:28:25;;;;;;;2.23;2.13;;;;;;;1.65;84.44;95559.50;4331097;32;20278;-66
2023/01/27 10:30:54;;;;;;;2.70;2.50;;;;;;;1.53;85.77;95556.09;4327169;32;20290;-62
2023/01/27 10:33:21;;;;;;;2.80;2.60;;;;;;;1.64;85.93;95544.84;4324627;32;20278;-63
2023/01/27 10:35:52;;;;;;;2.37;2.27;;;;;;;1.87;85.82;95555.19;4331269;32;20317;-63
2023/01/27 10:38:29;;;;;;;3.00;2.80;;;;;;;2.05;85.07;95554.25;4330401;32;20274;-63
2023/01/27 10:41:00;;;;;;;7.80;3.50;;;;;;;2.01;84.16;95564.37;4326669;32;20322;-63
2023/01/27 10:43:42;;;;;;;2.43;2.33;;;;;;;1.87;83.89;95557.81;4316105;33;20601;-63
2023/01/27 10:46:16;;;;;;;1.60;1.60;;;;;;;1.83;83.92;95566.38;4337392;32;20361;-62
2023/01/27 10:48:56;;;;;;;2.07;2.07;;;;;;;1.85;84.11;95567.75;4330273;32;20336;-65
2023/01/27 10:51:33;;;;;;;2.73;2.53;;;;;;;1.59;84.19;95570.88;4338984;32;20300;-61
2023/01/27 10:54:21;;;;;;;1.92;1.83;;;;;;;1.44;85.33;95560.09;4322462;32;20290;-62
2023/01/27 10:56:57;;;;;;;1.83;1.73;;;;;;;1.43;86.10;95564.53;4328612;32;20181;-62
2023/01/27 10:59:33;;;;;;;5.27;2.43;;;;;;;1.58;86.37;95558.81;4325139;32;20196;-64
2023/01/27 11:02:16;;;;;;;1.73;1.63;;;;;;;1.69;85.77;95560.59;4329913;32;20274;-64
2023/01/27 11:04:46;;;;;;;7.50;2.57;;;;;;;1.69;85.19;95568.44;4327997;32;20281;-64
2023/01/27 11:07:18;;;;;;;1.57;1.57;;;;;;;1.65;85.18;95564.72;4328242;32;20305;-64
2023/01/27 11:09:51;;;;;;;2.77;2.30;;;;;;;1.71;84.95;95563.78;4329792;32;20275;-64
2023/01/27 11:12:27;;;;;;;2.73;2.63;;;;;;;1.69;84.85;95565.81;4329892;32;20333;-64
2023/01/27 11:14:53;;;;;;;2.70;2.60;;;;;;;1.67;85.42;95567.88;4330534;32;20298;-64
2023/01/27 11:17:30;;;;;;;2.90;2.77;;;;;;;1.69;85.24;95565.81;4327650;32;20293;-65
2023/01/27 11:20:22;;;;;;;1.67;1.60;;;;;;;1.71;84.87;95567.19;4339315;32;20283;-64
2023/01/27 11:23:03;;;;;;;2.97;2.77;;;;;;;1.46;84.63;95552.81;4329506;32;20278;-64
2023/01/27 11:25:43;;;;;;;4.57;4.20;;;;;;;1.51;83.99;95558.13;4338735;32;20305;-64
2023/01/27 11:28:23;;;;;;;2.47;2.15;;;;;;;1.45;84.15;95549.41;4328449;32;20281;-65
2023/01/27 11:30:56;;;;;;;3.70;3.47;;;;;;;1.34;84.91;95556.25;4325265;32;20194;-66
2023/01/27 11:33:45;;;;;;;3.08;2.87;;;;;;;1.56;83.65;95553.03;4323494;32;20220;-63
2023/01/27 11:36:11;;;;;;;2.12;2.03;;;;;;;1.38;84.88;95552.16;4322440;32;20243;-63
2023/01/27 11:38:36;;;;;;;2.63;2.37;;;;;;;1.28;84.74;95549.31;4329239;32;20186;-64
2023/01/27 11:41:02;;;;;;;2.40;2.30;;;;;;;1.24;85.01;95553.44;4328579;32;20202;-63
2023/01/27 11:43:28;;;;;;;1.53;1.43;;;;;;;1.12;85.21;95555.22;4327234;32;20189;-62
2023/01/27 11:46:16;;;;;;;2.67;2.57;;;;;;;1.16;85.68;95545.94;4337004;32;20173;-63
2023/01/27 11:48:46;;;;;;;2.53;2.43;;;;;;;1.34;84.74;95537.94;4324800;32;20254;-63
2023/01/27 11:51:16;;;;;;;1.98;1.37;;;;;;;1.59;84.43;95540.28;4335580;32;20410;-62
2023/01/27 11:53:43;;;;;;;2.87;2.78;;;;;;;1.82;84.41;95541.25;4322014;32;20301;-62
2023/01/27 11:56:16;;;;;;;2.45;2.35;;;;;;;1.77;83.52;95541.94;4327695;32;20190;-63
2023/01/27 11:59:22;;;;;;;1.07;1.07;;;;;;;1.74;84.10;95539.78;4327882;32;20227;-63
2023/01/27 12:01:54;;;;;;;2.13;1.97;;;;;;;2.03;81.62;95546.62;4328909;32;20312;-63
2023/01/27 12:04:37;;;;;;;2.40;2.17;;;;;;;1.99;80.34;95545.50;4329183;32;20274;-63
2023/01/27 12:07:19;;;;;;;1.83;1.73;;;;;;;1.81;80.79;95544.88;4326265;32;20281;-63
2023/01/27 12:09:44;;;;;;;2.60;2.43;;;;;;;2.03;79.47;95541.41;4328855;32;20372;-63
2023/01/27 12:12:12;;;;;;;2.03;1.93;;;;;;;2.13;79.35;95539.97;4323799;32;20267;-63
2023/01/27 12:14:37;;;;;;;1.13;1.13;;;;;;;1.87;79.36;95542.13;4323511;32;20208;-62
2023/01/27 12:17:05;;;;;;;1.90;1.80;;;;;;;1.88;79.72;95538.47;4326999;32;20287;-62
2023/01/27 12:19:40;;;;;;;1.73;1.63;;;;;;;1.75;79.86;95536.16;4332153;32;20186;-62
2023/01/27 12:22:12;;;;;;;2.47;2.37;;;;;;;1.85;79.99;95538.97;4335599;32;20262;-62